Orient Glider Airport

Jump to: basic info | weather | comments

Related pages: nearby airports | nearby navaids | notams | map

Basic information (top)

Codes: FAOI
Location: lon -26.039400, lat 27.595600, elev 5,102 ft / 1,555 m msl
Status: small_airport

Weather (top)

Current conditions for Lanseria Airport 19nm (35km) ENE (rec'd 2015/03/01 03:00Z):

FALA 010300Z AUTO /////KT //// // ///// Q////

Airport forecast for Lanseria Airport 19nm (35km) ENE (rec'd 2015/02/28 00:00Z):

TAF FALA 282200Z 0100/0124 07005KT 9999 SCT025 
      BECMG 0101/0103 BKN015 PROB40 
      TEMPO 0102/0105 BKN008 
      BECMG 0106/0108 34010KT SCT040 
      BECMG 0110/0112 27011KT PROB40 
      TEMPO 0112/0119 5000 TSRA FEW035CB 
      BECMG 0113/0115 21014KT 
      BECMG 0117/0119 15007KT CAVOK 
     FM012330 10014KT 9999 SCT015 TX28/0112ZTN13/0103Z

Latest comments (top)

Runway Orientation and Airfield Frequency: Runway 36/18 (Main) Runway 11/29 Airfi ... [read]

More... (top)

See also NOTAMs and nearby airports and navaids, or visit the Orient Glider Airport page at the main OurAirports website..